Accueil
METAR-TAF:

METAR-TAF

Aéroports :

Aéroport international de Damas

Damas, Syrie

latitude: 33-25N, longitude: 036-31E, altitude: 608 m

Observation

Le bulletin a été fait il y a 25 minutes, à 04:00 UTC
Vent 15 kt de sud/sud-ouest
Température 21°C
Humidité 73%
Pression 1010 hPa
Visibilité 10 km ou plus
pas de nuages en-dessous de 1500 mètres et pas de cumulonimbus.

METAR: OSDI 110400Z 21015KT CAVOK 21/16 Q1010

Heure: 07:25 (04:25 UTC)

Prévision

Le bulletin a été fait il y a 5 heures et 25 minutes, à 23:00 UTC
Prévision valable du 11 à 00 UTC au 12 à 06 UTC
Vent 15 kt de sud-ouest
Visibilité 10 km ou plus
pas de nuages en-dessous de 1500 mètres et pas de cumulonimbus.
Temporairement
du 11 à 09 UTC au 11 à 18 UTC
Vent 15 kt de ouest avec des rafales jusqu'à 25 kt
Visibilité: 8000 m
Quelques nuages à une hauteur de 3000 ft

TAF: OSDI 102300Z 1100/1206 22015KT CAVOK TEMPO 1109/1118 26015G25KT 8000 FEW030

Observations et prévisions météorologiques de plus de 4000 aéroports (messages METAR et TAF).

Les stations disponibles sont représentées par des disques jaunes et rouges sur la carte.

Passer la souris dessus pour voir le nom de la station.

Cliquer dessus pour voir les observations et prévisions météorologiques.

Pour changer de carte: cliquez sur les boutons verts avec une croix noire pour zoomer, sur le bouton vert avec un tiret pour effectuer un zoom arrière, ou sur les flèches vertes pour les cartes adjacentes.


METAR-TAF: